Time;durP1;ratioP1;P1;durP2;ratioP2;P2;SDS_P1;SDS_P2;PMS_P1;PMS_P2;Temp;Humidity;BMP_temperature;BMP_pressure;BME280_temperature;BME280_humidity;BME280_pressure;Samples;Min_cycle;Max_cycle;Signal;HPM_P1;HPM_P2
2021/04/29 00:01:20;;;;;;;0.52;0.25;;;14.00;49.40;;;;;;5011206;28;20034;-78
2021/04/29 00:03:46;;;;;;;0.30;0.03;;;14.00;49.70;;;;;;5009023;28;20042;-78
2021/04/29 00:06:12;;;;;;;0.10;0.10;;;13.90;49.80;;;;;;5012020;28;20510;-78
2021/04/29 00:08:38;;;;;;;0.47;0.15;;;13.80;49.80;;;;;;5010687;28;20042;-79
2021/04/29 00:11:05;;;;;;;0.15;0.03;;;13.80;50.00;;;;;;5029524;28;20093;-78
2021/04/29 00:13:31;;;;;;;1.05;0.30;;;13.70;50.10;;;;;;5007542;28;20045;-79
2021/04/29 00:15:57;;;;;;;1.02;0.28;;;13.70;50.20;;;;;;5007162;28;20030;-79
2021/04/29 00:18:23;;;;;;;0.00;0.00;;;13.60;50.30;;;;;;5010284;28;20398;-78
2021/04/29 00:20:55;;;;;;;0.85;0.30;;;13.60;50.30;;;;;;4993463;28;20029;-79
2021/04/29 00:23:24;;;;;;;;;;;13.60;50.30;;;;;;5013555;28;20254;-79
2021/04/29 00:25:50;;;;;;;0.47;0.20;;;13.60;50.40;;;;;;5039592;28;21099;-79
2021/04/29 00:28:16;;;;;;;0.43;0.13;;;13.60;50.40;;;;;;5011760;28;20024;-79
2021/04/29 00:30:42;;;;;;;0.45;0.10;;;13.60;50.50;;;;;;5008516;28;20037;-78
2021/04/29 00:33:08;;;;;;;0.63;0.17;;;13.50;50.40;;;;;;5012303;28;20040;-78
2021/04/29 00:35:35;;;;;;;0.00;0.00;;;13.50;50.40;;;;;;4994651;28;20045;-79
2021/04/29 00:38:01;;;;;;;0.95;0.63;;;13.60;50.40;;;;;;5012197;28;20037;-78
2021/04/29 00:40:27;;;;;;;0.22;0.10;;;13.60;50.40;;;;;;5011831;28;20037;-78
2021/04/29 00:42:53;;;;;;;1.42;0.43;;;13.50;50.50;;;;;;5009728;28;20034;-78
2021/04/29 00:45:19;;;;;;;0.20;0.00;;;13.60;50.50;;;;;;5011234;28;20390;-78
2021/04/29 00:47:47;;;;;;;2.25;0.70;;;13.60;50.50;;;;;;5009208;28;20022;-79
2021/04/29 00:50:14;;;;;;;1.80;0.73;;;13.50;50.50;;;;;;5011103;28;20494;-78
2021/04/29 00:52:40;;;;;;;0.30;0.10;;;13.50;50.50;;;;;;4994023;28;20406;-78
2021/04/29 00:55:07;;;;;;;13.27;0.60;;;13.50;50.50;;;;;;4993261;28;20042;-79
2021/04/29 00:57:33;;;;;;;1.20;0.32;;;13.60;50.60;;;;;;5009426;28;20413;-78
2021/04/29 00:59:59;;;;;;;0.63;0.22;;;13.50;50.60;;;;;;4992905;28;20045;-78
2021/04/29 01:02:26;;;;;;;0.30;0.15;;;13.40;50.70;;;;;;5012318;28;20403;-78
2021/04/29 01:05:06;;;;;;;0.30;0.10;;;13.30;50.80;;;;;;5010304;28;20038;-79
2021/04/29 01:07:35;;;;;;;0.57;0.40;;;13.40;50.90;;;;;;5009432;28;20034;-78
2021/04/29 01:10:14;;;;;;;0.55;0.38;;;13.30;51.00;;;;;;5009496;28;20029;-78
2021/04/29 01:13:12;;;;;;;3.40;0.55;;;13.30;51.00;;;;;;5008816;28;20030;-78
2021/04/29 01:15:40;;;;;;;1.00;0.63;;;13.20;50.90;;;;;;5001411;28;20048;-79
2021/04/29 01:18:08;;;;;;;3.25;0.20;;;13.20;50.90;;;;;;4972472;28;20046;-79
2021/04/29 01:20:41;;;;;;;0.05;0.03;;;13.20;50.90;;;;;;4993510;28;20044;-78
2021/04/29 01:23:30;;;;;;;1.08;0.38;;;13.20;51.00;;;;;;5030692;28;20022;-78
2021/04/29 01:26:00;;;;;;;4.40;0.55;;;13.10;51.10;;;;;;5014044;28;20030;-78
2021/04/29 01:28:26;;;;;;;0.43;0.30;;;13.00;51.10;;;;;;5008372;28;20026;-77
2021/04/29 01:30:53;;;;;;;0.15;0.03;;;13.00;51.20;;;;;;4976627;28;20045;-78
2021/04/29 01:33:19;;;;;;;6.75;0.32;;;13.00;51.20;;;;;;5001560;28;20026;-78
2021/04/29 01:35:45;;;;;;;1.55;0.55;;;13.00;51.10;;;;;;5010423;28;20033;-78
2021/04/29 01:38:11;;;;;;;1.77;0.85;;;13.10;51.10;;;;;;5038624;28;20490;-79
2021/04/29 01:40:38;;;;;;;2.15;0.65;;;13.10;51.00;;;;;;5009841;28;20022;-77
2021/04/29 01:43:04;;;;;;;0.90;0.25;;;13.20;51.00;;;;;;5009670;28;20025;-77
2021/04/29 01:45:30;;;;;;;1.08;0.47;;;13.20;50.90;;;;;;4990908;28;20042;-77
2021/04/29 01:47:56;;;;;;;0.90;0.40;;;13.20;50.90;;;;;;5008915;28;20027;-77
2021/04/29 01:50:22;;;;;;;1.60;0.45;;;13.20;50.90;;;;;;5010159;28;20391;-77
2021/04/29 01:52:48;;;;;;;0.90;0.40;;;13.20;50.90;;;;;;4993525;28;20038;-77
2021/04/29 01:55:14;;;;;;;4.18;0.80;;;13.20;51.00;;;;;;5006946;28;20467;-77
2021/04/29 01:57:41;;;;;;;2.10;0.47;;;13.20;51.00;;;;;;5006758;28;20034;-77
2021/04/29 02:00:10;;;;;;;2.45;0.85;;;13.20;51.10;;;;;;5005823;28;20037;-77
2021/04/29 02:02:36;;;;;;;0.82;0.20;;;13.20;51.10;;;;;;5003943;28;20373;-77
2021/04/29 02:05:03;;;;;;;1.45;0.95;;;13.10;51.10;;;;;;5001672;28;20030;-76
2021/04/29 02:07:29;;;;;;;0.80;0.30;;;13.10;51.20;;;;;;5004121;28;20030;-77
2021/04/29 02:09:55;;;;;;;2.20;0.77;;;13.10;51.30;;;;;;5007582;28;20041;-77
2021/04/29 02:12:22;;;;;;;1.20;0.60;;;13.00;51.30;;;;;;5009223;28;20410;-77
2021/04/29 02:14:53;;;;;;;5.97;0.75;;;13.00;51.30;;;;;;5003318;28;20030;-76
2021/04/29 02:17:33;;;;;;;0.93;0.35;;;13.00;51.30;;;;;;5028442;28;20045;-77
2021/04/29 02:19:59;;;;;;;1.00;0.40;;;13.00;51.30;;;;;;5007117;28;20025;-76
2021/04/29 02:22:25;;;;;;;2.45;0.60;;;13.00;51.20;;;;;;5002992;28;20030;-77
2021/04/29 02:24:55;;;;;;;1.55;0.50;;;13.00;51.20;;;;;;5007804;28;20034;-77
2021/04/29 02:27:21;;;;;;;2.05;0.80;;;13.00;51.20;;;;;;5010258;28;20030;-77
2021/04/29 02:29:47;;;;;;;2.00;0.60;;;13.00;51.30;;;;;;5002329;28;20041;-76
2021/04/29 02:32:17;;;;;;;2.85;0.60;;;13.00;51.30;;;;;;5038104;28;20037;-77
2021/04/29 02:34:43;;;;;;;4.22;0.85;;;12.90;51.30;;;;;;5002498;28;20026;-77
2021/04/29 02:37:10;;;;;;;3.55;0.60;;;13.00;51.40;;;;;;5008859;28;20407;-76
2021/04/29 02:39:36;;;;;;;2.72;0.57;;;12.90;51.40;;;;;;4991897;28;20046;-77
2021/04/29 02:42:02;;;;;;;1.27;0.32;;;12.90;51.50;;;;;;4996731;28;20422;-77
2021/04/29 02:44:29;;;;;;;0.70;0.43;;;12.80;51.50;;;;;;4997347;28;20038;-76
2021/04/29 02:46:55;;;;;;;1.30;0.45;;;12.80;51.60;;;;;;5031263;28;20045;-76
2021/04/29 02:49:23;;;;;;;3.85;0.90;;;12.80;51.60;;;;;;5008240;28;20042;-77
2021/04/29 02:51:49;;;;;;;3.92;1.02;;;12.80;51.70;;;;;;5012363;28;20025;-77
2021/04/29 02:54:16;;;;;;;1.63;0.68;;;12.70;51.70;;;;;;4980042;28;20372;-77
2021/04/29 02:56:42;;;;;;;1.40;0.65;;;12.70;51.70;;;;;;5012193;28;20430;-76
2021/04/29 02:59:09;;;;;;;0.35;0.30;;;12.70;51.80;;;;;;5012694;28;20042;-77
2021/04/29 03:01:36;;;;;;;2.10;0.82;;;12.60;51.80;;;;;;5008444;28;20423;-77
2021/04/29 03:04:02;;;;;;;3.72;0.68;;;12.60;51.90;;;;;;4994262;28;20034;-77
2021/04/29 03:06:29;;;;;;;1.52;0.90;;;12.50;52.10;;;;;;5010067;28;20049;-77
2021/04/29 03:08:55;;;;;;;2.75;0.77;;;12.50;52.10;;;;;;5019626;28;20030;-76
2021/04/29 03:11:21;;;;;;;2.03;0.70;;;12.50;52.10;;;;;;5014706;28;20031;-77
2021/04/29 03:13:47;;;;;;;1.05;0.57;;;12.50;52.10;;;;;;5012942;28;20056;-77
2021/04/29 03:16:13;;;;;;;0.65;0.28;;;12.40;52.10;;;;;;5009502;28;20037;-77
2021/04/29 03:18:39;;;;;;;3.08;0.40;;;12.40;52.20;;;;;;5010994;28;20030;-76
2021/04/29 03:21:05;;;;;;;1.83;0.98;;;12.40;52.20;;;;;;5013040;28;20487;-77
2021/04/29 03:23:31;;;;;;;3.58;0.70;;;12.40;52.30;;;;;;5012754;28;20045;-77
2021/04/29 03:25:58;;;;;;;0.85;0.43;;;12.30;52.30;;;;;;5011831;28;20026;-77
2021/04/29 03:28:24;;;;;;;1.55;0.70;;;12.30;52.40;;;;;;5009931;28;20394;-77
2021/04/29 03:30:50;;;;;;;1.42;0.82;;;12.20;52.40;;;;;;5009659;28;20037;-79
2021/04/29 03:33:16;;;;;;;0.82;0.55;;;12.20;52.50;;;;;;5013500;28;20097;-76
2021/04/29 03:35:42;;;;;;;5.00;0.75;;;12.20;52.60;;;;;;5013415;28;20026;-79
2021/04/29 03:38:08;;;;;;;3.17;1.23;;;12.10;52.60;;;;;;5012106;28;20368;-79
2021/04/29 03:40:35;;;;;;;2.40;0.75;;;12.10;52.70;;;;;;5009806;28;20419;-78
2021/04/29 03:43:01;;;;;;;0.80;0.50;;;12.00;52.70;;;;;;5012465;28;20022;-79
2021/04/29 03:45:27;;;;;;;2.20;0.73;;;12.00;52.80;;;;;;5009289;28;20506;-79
2021/04/29 03:47:53;;;;;;;10.52;0.65;;;11.90;52.80;;;;;;5010639;28;20315;-76
2021/04/29 03:50:20;;;;;;;3.80;0.77;;;11.90;52.90;;;;;;5019867;28;20038;-78
2021/04/29 03:52:46;;;;;;;0.90;0.47;;;11.90;53.00;;;;;;5012571;28;20034;-78
2021/04/29 03:55:12;;;;;;;1.92;1.02;;;11.90;53.00;;;;;;5010058;28;20030;-78
2021/04/29 03:57:38;;;;;;;1.45;0.75;;;11.80;53.00;;;;;;5008711;28;20034;-78
2021/04/29 04:00:05;;;;;;;2.95;1.00;;;11.80;53.00;;;;;;5010741;28;20491;-78
2021/04/29 04:02:31;;;;;;;1.27;0.75;;;11.80;53.10;;;;;;5012016;28;20471;-79
2021/04/29 04:04:57;;;;;;;2.10;0.65;;;11.70;53.10;;;;;;5012312;28;20048;-78
2021/04/29 04:07:23;;;;;;;1.90;0.77;;;11.70;53.10;;;;;;5011090;28;20499;-79
2021/04/29 04:09:49;;;;;;;3.78;0.82;;;11.70;53.20;;;;;;4994964;28;20060;-79
2021/04/29 04:12:15;;;;;;;3.35;0.80;;;11.60;53.20;;;;;;5012103;28;20471;-79
2021/04/29 04:14:42;;;;;;;2.63;0.73;;;11.60;53.20;;;;;;5011424;28;20041;-79
2021/04/29 04:17:08;;;;;;;2.08;0.57;;;11.60;53.30;;;;;;5035443;28;20065;-78
2021/04/29 04:19:34;;;;;;;2.63;0.85;;;11.60;53.30;;;;;;5002833;28;20046;-79
2021/04/29 04:22:00;;;;;;;4.53;0.60;;;11.50;53.40;;;;;;5025519;28;20029;-79
2021/04/29 04:24:26;;;;;;;2.15;0.82;;;11.50;53.40;;;;;;5010118;28;20034;-79
2021/04/29 04:26:52;;;;;;;2.55;0.93;;;11.50;53.50;;;;;;5011480;28;20029;-80
2021/04/29 04:29:18;;;;;;;2.33;1.00;;;11.40;53.50;;;;;;5013453;28;20525;-79
2021/04/29 04:31:44;;;;;;;1.23;0.50;;;11.40;53.60;;;;;;5008922;28;20030;-78
2021/04/29 04:34:10;;;;;;;1.38;0.70;;;11.30;53.60;;;;;;5010980;28;20478;-79
2021/04/29 04:36:37;;;;;;;4.38;1.17;;;11.30;53.60;;;;;;4992792;28;20045;-79
2021/04/29 04:39:03;;;;;;;10.93;1.20;;;11.30;53.70;;;;;;5010490;28;20049;-79
2021/04/29 04:41:29;;;;;;;2.22;0.85;;;11.30;53.70;;;;;;5012687;28;20367;-80
2021/04/29 04:43:55;;;;;;;3.53;1.27;;;11.20;53.70;;;;;;5013729;28;20027;-79
2021/04/29 04:46:22;;;;;;;0.75;0.47;;;11.20;53.80;;;;;;5006464;28;20045;-78
2021/04/29 04:48:48;;;;;;;2.90;0.52;;;11.20;53.80;;;;;;5007882;28;20382;-78
2021/04/29 04:51:14;;;;;;;2.38;0.70;;;11.10;53.80;;;;;;5010286;28;20026;-79
2021/04/29 04:53:40;;;;;;;3.67;1.45;;;11.10;53.80;;;;;;4993671;28;20041;-80
2021/04/29 04:56:06;;;;;;;2.60;0.80;;;11.10;53.80;;;;;;5010560;28;20037;-79
2021/04/29 04:58:32;;;;;;;2.95;1.23;;;11.10;53.90;;;;;;5009654;28;20045;-79
2021/04/29 05:00:59;;;;;;;5.85;1.83;;;11.10;53.90;;;;;;5009008;28;20033;-80
2021/04/29 05:03:26;;;;;;;0.52;0.30;;;11.10;54.00;;;;;;5008468;28;20018;-79
2021/04/29 05:05:52;;;;;;;1.75;0.55;;;11.00;54.00;;;;;;5005356;28;20033;-79
2021/04/29 05:08:18;;;;;;;2.05;0.90;;;11.00;54.00;;;;;;4983767;28;20038;-78
2021/04/29 05:10:44;;;;;;;1.73;0.90;;;11.00;54.10;;;;;;5009290;28;20064;-78
2021/04/29 05:13:10;;;;;;;3.65;1.00;;;11.00;54.10;;;;;;5009928;28;20029;-79
2021/04/29 05:15:36;;;;;;;2.05;0.90;;;11.00;54.10;;;;;;5007315;28;20038;-79
2021/04/29 05:18:03;;;;;;;3.15;1.13;;;11.00;54.20;;;;;;5007912;28;20038;-79
2021/04/29 05:20:30;;;;;;;2.33;0.95;;;10.90;54.10;;;;;;5032592;28;20041;-78
2021/04/29 05:22:56;;;;;;;1.98;1.15;;;11.00;54.20;;;;;;5011989;28;20495;-79
2021/04/29 05:25:23;;;;;;;1.38;0.85;;;11.00;54.20;;;;;;5004352;28;20038;-80
2021/04/29 05:27:52;;;;;;;1.58;0.77;;;11.10;54.20;;;;;;5007597;28;20025;-79
2021/04/29 05:30:19;;;;;;;2.80;1.02;;;11.10;54.20;;;;;;5006073;28;20030;-80
2021/04/29 05:32:48;;;;;;;7.10;1.48;;;11.10;54.10;;;;;;5026801;28;20030;-80
2021/04/29 05:35:15;;;;;;;3.78;1.05;;;11.20;54.10;;;;;;5005475;28;20041;-79
2021/04/29 05:37:41;;;;;;;3.03;1.40;;;11.30;54.00;;;;;;5005062;28;20029;-79
2021/04/29 05:40:07;;;;;;;2.47;1.20;;;11.30;53.90;;;;;;5009671;28;20395;-81
2021/04/29 05:42:33;;;;;;;4.95;1.20;;;11.40;53.90;;;;;;5007747;28;20025;-80
2021/04/29 05:45:00;;;;;;;3.75;1.25;;;11.60;53.70;;;;;;5006101;28;20411;-79
2021/04/29 05:47:26;;;;;;;4.18;0.98;;;11.70;54.20;;;;;;5007733;28;20048;-79
2021/04/29 05:49:52;;;;;;;3.03;1.10;;;11.90;53.40;;;;;;5005342;28;20033;-79
2021/04/29 05:52:18;;;;;;;1.60;0.65;;;12.00;53.20;;;;;;5002905;28;20031;-78
2021/04/29 05:54:44;;;;;;;4.57;1.23;;;12.20;53.10;;;;;;5007918;28;20034;-78
2021/04/29 05:57:10;;;;;;;5.32;1.08;;;12.30;52.90;;;;;;5005939;28;20037;-79
2021/04/29 05:59:36;;;;;;;2.25;1.27;;;12.40;52.80;;;;;;5003308;28;20893;-79
2021/04/29 06:02:02;;;;;;;2.22;0.50;;;12.50;52.70;;;;;;5041171;28;20049;-79
2021/04/29 06:04:28;;;;;;;2.20;1.35;;;12.70;52.60;;;;;;5008563;28;20037;-79
2021/04/29 06:06:55;;;;;;;1.33;0.43;;;12.80;52.50;;;;;;5005952;28;20030;-79
2021/04/29 06:09:21;;;;;;;1.63;0.77;;;12.90;52.50;;;;;;5004426;28;20030;-79
2021/04/29 06:11:47;;;;;;;1.92;0.60;;;12.90;52.40;;;;;;4987660;28;20049;-80
2021/04/29 06:14:14;;;;;;;4.80;1.85;;;13.00;52.40;;;;;;5034406;28;20488;-80
2021/04/29 06:16:40;;;;;;;3.63;1.58;;;13.10;52.40;;;;;;5016019;28;20037;-79
2021/04/29 06:19:06;;;;;;;1.50;0.85;;;13.20;52.30;;;;;;4998992;28;20415;-78
2021/04/29 06:21:33;;;;;;;1.98;0.77;;;13.30;52.20;;;;;;5012980;28;20390;-80
2021/04/29 06:24:00;;;;;;;2.88;1.33;;;13.50;52.10;;;;;;5011127;28;20457;-79
2021/04/29 06:26:26;;;;;;;4.95;1.95;;;13.60;52.00;;;;;;5010256;28;20038;-78
2021/04/29 06:28:52;;;;;;;1.77;1.08;;;13.70;51.80;;;;;;4991042;28;20057;-78
2021/04/29 06:31:18;;;;;;;4.28;1.55;;;13.90;51.80;;;;;;5011939;28;20389;-79
2021/04/29 06:33:44;;;;;;;1.77;0.70;;;13.90;51.60;;;;;;5012486;28;20053;-78
2021/04/29 06:36:10;;;;;;;6.25;1.52;;;14.00;51.60;;;;;;5013065;28;20033;-80
2021/04/29 06:38:36;;;;;;;2.65;1.33;;;14.10;51.50;;;;;;5011740;28;20033;-78
2021/04/29 06:41:03;;;;;;;2.20;0.93;;;14.20;51.50;;;;;;5044883;28;20034;-79
2021/04/29 06:43:29;;;;;;;1.90;1.25;;;14.40;51.40;;;;;;5009274;28;20034;-78
2021/04/29 06:45:55;;;;;;;7.47;1.50;;;14.50;51.30;;;;;;5009276;28;20038;-78
2021/04/29 06:48:21;;;;;;;6.30;1.55;;;14.60;51.20;;;;;;5012444;28;20398;-80
2021/04/29 06:50:48;;;;;;;2.80;1.20;;;14.70;51.10;;;;;;5010800;28;20044;-78
2021/04/29 06:53:14;;;;;;;3.15;1.25;;;14.90;51.00;;;;;;5010209;28;20049;-80
2021/04/29 06:55:40;;;;;;;3.60;1.35;;;15.00;50.80;;;;;;5011847;28;20030;-79
2021/04/29 06:58:06;;;;;;;4.28;1.65;;;15.10;50.70;;;;;;5008659;28;20034;-79
2021/04/29 07:00:33;;;;;;;4.53;1.85;;;15.30;50.60;;;;;;5011668;28;20041;-78
2021/04/29 07:02:59;;;;;;;2.92;1.60;;;15.50;50.40;;;;;;5008842;28;20475;-81
2021/04/29 07:05:26;;;;;;;3.83;1.38;;;15.60;50.30;;;;;;5013056;28;20022;-83
2021/04/29 07:07:53;;;;;;;3.83;1.45;;;15.70;50.30;;;;;;5010638;28;20395;-79
2021/04/29 07:10:20;;;;;;;3.45;1.02;;;15.90;50.20;;;;;;5009998;28;20018;-80
2021/04/29 07:12:46;;;;;;;4.50;1.40;;;16.00;50.10;;;;;;5010576;28;20411;-80
2021/04/29 07:15:12;;;;;;;4.57;1.10;;;16.10;50.00;;;;;;5010530;28;20033;-80
2021/04/29 07:17:39;;;;;;;5.93;1.23;;;16.20;49.90;;;;;;5012564;28;20040;-81
2021/04/29 07:20:05;;;;;;;1.90;1.38;;;16.30;49.80;;;;;;5027436;28;20046;-82
2021/04/29 07:22:32;;;;;;;2.92;1.05;;;16.30;50.00;;;;;;5012591;28;20022;-81
2021/04/29 07:24:58;;;;;;;4.55;1.55;;;16.20;50.10;;;;;;5010289;28;20048;-79
2021/04/29 07:27:24;;;;;;;5.03;1.50;;;16.10;50.20;;;;;;5012344;28;20430;-80
2021/04/29 07:29:50;;;;;;;3.00;1.10;;;15.90;50.40;;;;;;5010736;28;20034;-80
2021/04/29 07:32:16;;;;;;;2.85;1.77;;;15.70;50.70;;;;;;5034501;28;20529;-78
2021/04/29 07:34:42;;;;;;;5.55;1.95;;;15.40;51.10;;;;;;5012513;28;20022;-79
2021/04/29 07:37:08;;;;;;;11.93;1.75;;;15.20;51.40;;;;;;5010054;28;20037;-79
2021/04/29 07:39:35;;;;;;;8.27;2.30;;;15.00;51.60;;;;;;5010421;28;20046;-78
2021/04/29 07:42:01;;;;;;;3.78;1.65;;;15.10;51.60;;;;;;5009086;28;20044;-79
2021/04/29 07:44:27;;;;;;;4.60;0.95;;;15.20;51.50;;;;;;4994427;28;20040;-81
2021/04/29 07:46:53;;;;;;;4.63;1.38;;;15.10;51.50;;;;;;5011948;28;20042;-82
2021/04/29 07:49:19;;;;;;;4.43;1.90;;;15.10;51.50;;;;;;5006646;28;20030;-81
2021/04/29 07:51:45;;;;;;;3.92;1.50;;;15.30;51.50;;;;;;4995176;28;20050;-81
2021/04/29 07:54:15;;;;;;;4.07;1.48;;;15.60;51.00;;;;;;5009139;28;20042;-79
2021/04/29 07:56:42;;;;;;;5.15;1.52;;;16.00;50.40;;;;;;5011812;28;20038;-80
2021/04/29 07:59:08;;;;;;;2.30;1.58;;;16.30;50.00;;;;;;5011000;28;20042;-79
2021/04/29 08:01:34;;;;;;;1.50;0.73;;;16.10;50.00;;;;;;4993807;28;20046;-79
2021/04/29 08:04:01;;;;;;;3.55;0.95;;;15.90;50.40;;;;;;5010590;28;20030;-78
2021/04/29 08:06:28;;;;;;;5.65;2.03;;;15.60;50.80;;;;;;5011828;28;20462;-79
2021/04/29 08:08:55;;;;;;;6.90;2.00;;;15.40;51.20;;;;;;5011131;28;20037;-78
2021/04/29 08:11:21;;;;;;;7.95;2.85;;;15.30;51.30;;;;;;5012737;28;20053;-79
2021/04/29 08:13:47;;;;;;;0.47;0.38;;;15.30;51.40;;;;;;5009401;28;20097;-79
2021/04/29 08:16:13;;;;;;;2.58;1.23;;;15.40;51.30;;;;;;4991951;28;20045;-79
2021/04/29 08:18:39;;;;;;;4.25;2.00;;;15.50;51.20;;;;;;5007586;28;20050;-77
2021/04/29 08:21:07;;;;;;;9.68;2.42;;;15.70;51.10;;;;;;5010807;28;20034;-78
2021/04/29 08:23:34;;;;;;;3.13;1.58;;;15.80;50.80;;;;;;5011996;28;20050;-78
2021/04/29 08:26:01;;;;;;;2.80;1.38;;;15.80;50.80;;;;;;5012534;28;20045;-77
2021/04/29 08:28:27;;;;;;;3.88;1.85;;;15.80;50.80;;;;;;5008346;28;20482;-77
2021/04/29 08:30:53;;;;;;;7.90;3.08;;;16.00;50.60;;;;;;5010599;28;20038;-77
2021/04/29 08:33:19;;;;;;;4.00;2.10;;;16.10;50.40;;;;;;5010655;28;20026;-78
2021/04/29 08:35:45;;;;;;;9.48;1.90;;;16.10;50.50;;;;;;4993341;28;20042;-79
2021/04/29 08:38:11;;;;;;;7.95;2.15;;;16.00;50.80;;;;;;5012102;28;20036;-77
2021/04/29 08:40:37;;;;;;;4.75;1.60;;;15.90;50.80;;;;;;5010008;28;20038;-80
2021/04/29 08:43:04;;;;;;;7.38;2.03;;;16.10;50.90;;;;;;5011095;28;20475;-79
2021/04/29 08:45:30;;;;;;;7.25;2.53;;;16.30;50.50;;;;;;4991259;28;20054;-77
2021/04/29 08:47:56;;;;;;;5.50;1.83;;;16.50;50.30;;;;;;5008572;28;20475;-79
2021/04/29 08:50:23;;;;;;;4.22;1.25;;;16.60;50.00;;;;;;5011306;28;20033;-83
2021/04/29 08:52:50;;;;;;;6.03;1.92;;;16.60;50.00;;;;;;5009956;28;20033;-80
2021/04/29 08:55:25;;;;;;;6.28;1.77;;;16.40;50.20;;;;;;5008822;28;20029;-80
2021/04/29 08:57:51;;;;;;;16.05;3.55;;;16.20;50.60;;;;;;5008329;28;20073;-78
2021/04/29 09:00:18;;;;;;;1.42;0.75;;;16.00;50.90;;;;;;5009479;28;20037;-77
2021/04/29 09:02:44;;;;;;;6.13;2.80;;;15.70;51.30;;;;;;5009618;28;20037;-78
2021/04/29 09:05:13;;;;;;;3.20;1.73;;;15.50;51.60;;;;;;5012250;28;20061;-78
2021/04/29 09:07:39;;;;;;;4.38;2.72;;;15.50;51.80;;;;;;5010773;28;20022;-78
2021/04/29 09:10:07;;;;;;;4.57;2.13;;;15.40;51.90;;;;;;5007591;28;20095;-77
2021/04/29 09:12:44;;;;;;;1.88;0.70;;;15.40;51.90;;;;;;5010138;28;20029;-78
2021/04/29 09:15:29;;;;;;;4.65;1.55;;;15.40;52.00;;;;;;5007574;28;20498;-77
2021/04/29 09:18:13;;;;;;;2.53;1.02;;;15.20;52.30;;;;;;5009330;28;20021;-78
2021/04/29 09:20:53;;;;;;;2.50;1.30;;;15.20;52.30;;;;;;5008539;28;20045;-77
2021/04/29 09:23:31;;;;;;;3.75;2.10;;;15.30;52.10;;;;;;5032638;28;20031;-77
2021/04/29 09:26:07;;;;;;;10.30;2.17;;;15.40;52.00;;;;;;4998783;28;20030;-78
2021/04/29 09:28:47;;;;;;;3.40;1.30;;;15.50;51.90;;;;;;5003718;28;20060;-80
2021/04/29 09:31:17;;;;;;;4.85;1.42;;;15.70;51.60;;;;;;5007831;28;20278;-77
2021/04/29 09:33:45;;;;;;;1.52;0.57;;;16.00;51.20;;;;;;5018594;28;20022;-77
2021/04/29 09:36:24;;;;;;;4.15;1.65;;;16.10;50.90;;;;;;5008745;28;20052;-78
2021/04/29 09:38:58;;;;;;;5.88;1.85;;;16.20;50.80;;;;;;5040670;28;20105;-78
2021/04/29 09:41:41;;;;;;;3.28;1.10;;;16.30;50.80;;;;;;5006781;28;20498;-79
2021/04/29 09:44:14;;;;;;;6.75;1.23;;;16.60;50.50;;;;;;4991040;28;20050;-80
2021/04/29 09:46:51;;;;;;;6.20;1.65;;;16.80;50.20;;;;;;5005630;28;20050;-79
2021/04/29 09:49:33;;;;;;;6.53;1.48;;;17.00;49.90;;;;;;5005979;28;20463;-79
2021/04/29 09:52:04;;;;;;;0.90;0.25;;;17.40;49.60;;;;;;5004259;28;20030;-79
2021/04/29 09:54:33;;;;;;;;;;;17.60;49.20;;;;;;5010305;28;20021;-79
2021/04/29 09:57:03;;;;;;;7.20;1.70;;;17.60;49.10;;;;;;4996197;28;19932;-79
2021/04/29 09:59:30;;;;;;;5.30;1.08;;;17.70;49.20;;;;;;5039750;28;20065;-78
2021/04/29 10:01:56;;;;;;;3.67;1.60;;;17.80;49.00;;;;;;5008933;28;20038;-78
2021/04/29 10:04:24;;;;;;;5.00;1.30;;;17.90;48.90;;;;;;4984283;28;20034;-78
2021/04/29 10:06:50;;;;;;;3.40;1.13;;;18.10;48.70;;;;;;5005569;28;20026;-80
2021/04/29 10:09:17;;;;;;;6.72;1.58;;;18.10;48.60;;;;;;5005751;28;20038;-78
2021/04/29 10:11:46;;;;;;;4.32;1.33;;;18.10;48.60;;;;;;5002325;28;20034;-79
2021/04/29 10:14:12;;;;;;;4.90;1.70;;;18.10;48.60;;;;;;5035204;28;20067;-80
2021/04/29 10:16:38;;;;;;;5.75;1.50;;;18.00;48.70;;;;;;5005778;28;20034;-79
2021/04/29 10:19:04;;;;;;;3.63;1.20;;;18.10;48.80;;;;;;5002598;28;20034;-78
2021/04/29 10:21:30;;;;;;;1.42;0.65;;;18.20;48.40;;;;;;5002977;28;20030;-79
2021/04/29 10:23:56;;;;;;;6.90;0.93;;;18.20;48.40;;;;;;5006285;28;20033;-79
2021/04/29 10:26:26;;;;;;;1.98;0.70;;;18.10;48.40;;;;;;4996145;28;20046;-79
2021/04/29 10:29:00;;;;;;;4.70;1.40;;;18.00;48.60;;;;;;5037100;28;20034;-79
2021/04/29 10:31:28;;;;;;;5.35;0.73;;;18.00;48.40;;;;;;4992024;28;20042;-79
2021/04/29 10:34:02;;;;;;;3.40;0.80;;;18.20;48.20;;;;;;5038400;28;20025;-78
2021/04/29 10:36:36;;;;;;;1.13;0.30;;;18.40;47.80;;;;;;5037183;28;20053;-78
2021/04/29 10:39:13;;;;;;;1.85;0.52;;;18.40;47.60;;;;;;5005243;28;20041;-79
2021/04/29 10:41:40;;;;;;;1.48;0.68;;;18.30;47.50;;;;;;5037182;28;20391;-79
2021/04/29 10:44:19;;;;;;;1.75;0.50;;;18.20;47.60;;;;;;4988304;28;20037;-78
2021/04/29 10:46:49;;;;;;;1.92;1.08;;;18.00;47.70;;;;;;5037275;28;20553;-78
2021/04/29 10:49:15;;;;;;;1.48;0.50;;;17.90;47.90;;;;;;5036035;28;20058;-78
2021/04/29 10:51:45;;;;;;;2.25;0.60;;;17.90;47.90;;;;;;4988607;28;20030;-78
2021/04/29 10:54:19;;;;;;;2.10;0.80;;;18.00;48.30;;;;;;5011940;28;20041;-77
2021/04/29 10:57:05;;;;;;;4.43;0.60;;;18.20;47.50;;;;;;4998510;28;20037;-78
2021/04/29 10:59:44;;;;;;;2.22;0.50;;;18.50;47.20;;;;;;5006110;28;20030;-77
2021/04/29 11:02:27;;;;;;;2.25;0.55;;;18.70;46.90;;;;;;5002769;28;20406;-77
2021/04/29 11:04:54;;;;;;;3.80;0.75;;;18.80;46.60;;;;;;5035560;28;20022;-78
2021/04/29 11:07:21;;;;;;;0.50;0.20;;;18.80;46.40;;;;;;5036342;28;20036;-78
2021/04/29 11:10:07;;;;;;;1.02;0.50;;;18.60;46.40;;;;;;5000424;28;20367;-77
2021/04/29 11:12:53;;;;;;;0.75;0.20;;;18.40;46.20;;;;;;5005836;28;20392;-78
2021/04/29 11:15:32;;;;;;;0.45;0.15;;;18.10;46.40;;;;;;4987981;28;20046;-78
2021/04/29 11:18:00;;;;;;;1.17;0.60;;;18.00;46.50;;;;;;5031121;28;20026;-77
2021/04/29 11:20:26;;;;;;;2.13;0.60;;;18.10;46.10;;;;;;5036673;28;20049;-78
2021/04/29 11:22:56;;;;;;;5.57;0.63;;;18.20;45.80;;;;;;5012373;28;20034;-78
2021/04/29 11:25:23;;;;;;;2.10;0.73;;;18.50;45.60;;;;;;4991052;28;20038;-78
2021/04/29 11:27:55;;;;;;;2.13;0.65;;;19.00;45.20;;;;;;5009026;28;20042;-77
2021/04/29 11:30:21;;;;;;;1.67;0.40;;;19.50;44.50;;;;;;5006496;28;20041;-78
2021/04/29 11:32:54;;;;;;;1.33;0.35;;;19.90;43.80;;;;;;5038918;28;20415;-78
2021/04/29 11:35:25;;;;;;;0.60;0.17;;;20.10;43.60;;;;;;5008436;28;20052;-78
2021/04/29 11:37:51;;;;;;;;;;;20.20;43.70;;;;;;5005706;28;20022;-78
2021/04/29 11:40:17;;;;;;;5.00;0.93;;;19.90;42.90;;;;;;5019438;28;19917;-78
2021/04/29 11:42:54;;;;;;;0.82;0.20;;;19.60;43.00;;;;;;4993175;28;20057;-78
2021/04/29 11:45:36;;;;;;;1.42;0.45;;;19.20;43.10;;;;;;5010162;28;20061;-78
2021/04/29 11:48:04;;;;;;;1.90;0.50;;;19.10;43.50;;;;;;5035825;28;20030;-78
2021/04/29 11:50:37;;;;;;;1.70;0.60;;;19.00;43.30;;;;;;5005055;28;20033;-78
2021/04/29 11:53:13;;;;;;;3.13;0.38;;;19.10;43.50;;;;;;5006599;28;20030;-77
2021/04/29 11:55:41;;;;;;;1.63;0.40;;;19.10;42.80;;;;;;5035795;28;20501;-78
2021/04/29 11:58:17;;;;;;;0.63;0.30;;;19.10;42.70;;;;;;5016015;28;20030;-78
2021/04/29 12:00:45;;;;;;;2.20;0.63;;;19.00;42.80;;;;;;5033795;28;20200;-78
2021/04/29 12:03:12;;;;;;;1.15;0.60;;;18.80;42.70;;;;;;5023670;28;20021;-78
2021/04/29 12:05:39;;;;;;;0.73;0.32;;;18.70;42.90;;;;;;5002319;28;20355;-78
2021/04/29 12:08:08;;;;;;;1.75;0.43;;;18.70;42.90;;;;;;5002806;28;20026;-78
2021/04/29 12:10:51;;;;;;;5.68;0.52;;;18.70;42.90;;;;;;5021836;28;20382;-77
2021/04/29 12:13:48;;;;;;;1.83;0.40;;;18.60;43.10;;;;;;5017809;28;20045;-78
2021/04/29 12:16:19;;;;;;;1.45;0.30;;;18.50;43.20;;;;;;4994533;28;20035;-78
2021/04/29 12:18:49;;;;;;;1.20;0.50;;;18.40;43.20;;;;;;5019044;28;20035;-78
2021/04/29 12:21:16;;;;;;;2.05;0.80;;;18.20;43.30;;;;;;5002370;28;20340;-78
2021/04/29 12:23:43;;;;;;;0.90;0.45;;;18.20;43.50;;;;;;5008850;28;20391;-78
2021/04/29 12:26:10;;;;;;;5.30;0.70;;;18.10;43.50;;;;;;5015186;28;20403;-78
2021/04/29 12:28:42;;;;;;;5.65;0.57;;;18.20;43.40;;;;;;5005211;28;20041;-82
2021/04/29 12:31:11;;;;;;;2.25;1.05;;;18.30;43.30;;;;;;5040373;28;20033;-83
2021/04/29 12:33:37;;;;;;;0.55;0.10;;;18.30;43.10;;;;;;5010718;28;20029;-90
2021/04/29 12:36:08;;;;;;;1.95;0.63;;;18.20;43.10;;;;;;5007485;28;20038;-83
2021/04/29 12:38:34;;;;;;;0.65;0.10;;;18.20;43.10;;;;;;5032839;28;20029;-90
2021/04/29 12:41:07;;;;;;;0.73;0.30;;;18.20;43.20;;;;;;5004461;28;20046;-84
2021/04/29 12:43:34;;;;;;;2.40;0.77;;;18.10;43.20;;;;;;5013471;28;20550;-83
2021/04/29 12:46:02;;;;;;;1.85;0.75;;;18.10;43.10;;;;;;5003955;28;20062;-80
2021/04/29 12:48:40;;;;;;;1.52;0.20;;;18.20;43.10;;;;;;5011405;28;20038;-79
2021/04/29 12:51:09;;;;;;;0.85;0.30;;;18.40;43.10;;;;;;4997693;28;20044;-78
2021/04/29 12:53:37;;;;;;;2.60;0.50;;;18.40;42.90;;;;;;5011674;28;20035;-79